Time;durP1;ratioP1;P1;durP2;ratioP2;P2;SDS_P1;SDS_P2;PMS_P1;PMS_P2;Temp;Humidity;BMP_temperature;BMP_pressure;BME280_temperature;BME280_humidity;BME280_pressure;Samples;Min_cycle;Max_cycle;Signal;HPM_P1;HPM_P2
2021/05/19 00:01:53;;;;;;;3.65;1.80;;;;;;;;;;4939696;29;20034;-92
2021/05/19 00:04:38;;;;;;;6.28;1.80;;;;;;;;;;4937184;28;20036;-92
2021/05/19 00:07:23;;;;;;;4.95;2.30;;;;;;;;;;4940014;28;20481;-91
2021/05/19 00:10:09;;;;;;;3.13;2.08;;;;;;;;;;4939689;29;20027;-90
2021/05/19 00:12:54;;;;;;;7.75;2.25;;;;;;;;;;4933169;28;20050;-88
2021/05/19 00:15:39;;;;;;;4.30;2.10;;;;;;;;;;4921227;29;20645;-88
2021/05/19 00:18:24;;;;;;;3.72;1.90;;;;;;;;;;4910709;29;20027;-89
2021/05/19 00:21:10;;;;;;;3.13;1.70;;;;;;;;;;4915955;29;20383;-88
2021/05/19 00:23:55;;;;;;;6.70;2.30;;;;;;;;;;4913703;29;20034;-89
2021/05/19 00:26:41;;;;;;;3.33;1.70;;;;;;;;;;4905541;29;20035;-89
2021/05/19 00:29:26;;;;;;;5.70;2.35;;;;;;;;;;4900741;29;20043;-89
2021/05/19 00:32:11;;;;;;;5.68;2.00;;;;;;;;;;4918614;29;20028;-89
2021/05/19 00:34:56;;;;;;;3.40;1.80;;;;;;;;;;4915709;29;20031;-88
2021/05/19 00:37:42;;;;;;;6.78;2.13;;;;;;;;;;4918700;29;20055;-89
2021/05/19 00:40:27;;;;;;;5.30;2.28;;;;;;;;;;4912507;29;20550;-88
2021/05/19 00:43:12;;;;;;;5.13;2.53;;;;;;;;;;4915797;29;20391;-89
2021/05/19 00:45:57;;;;;;;5.05;1.95;;;;;;;;;;4915581;29;20036;-90
2021/05/19 00:48:42;;;;;;;4.25;2.28;;;;;;;;;;4915375;29;20024;-92
2021/05/19 00:51:28;;;;;;;4.00;1.55;;;;;;;;;;4916614;29;20032;-90
2021/05/19 00:54:13;;;;;;;3.85;2.00;;;;;;;;;;4917625;29;20028;-90
2021/05/19 00:56:58;;;;;;;6.93;2.30;;;;;;;;;;4919719;29;20019;-90
2021/05/19 00:59:44;;;;;;;4.70;2.22;;;;;;;;;;4914531;29;20036;-91
2021/05/19 01:02:29;;;;;;;3.17;1.77;;;;;;;;;;4919030;29;20052;-91
2021/05/19 01:06:00;;;;;;;4.72;2.30;;;;;;;;;;4916128;29;20032;-93
2021/05/19 01:11:38;;;;;;;6.38;2.47;;;;;;;;;;4919159;29;20051;-92
2021/05/19 01:14:23;;;;;;;7.90;2.22;;;;;;;;;;4919619;28;20048;-92
2021/05/19 01:17:09;;;;;;;3.72;1.92;;;;;;;;;;4918436;29;20058;-93
2021/05/19 01:19:54;;;;;;;7.18;1.98;;;;;;;;;;4921432;29;20015;-95
2021/05/19 01:22:41;;;;;;;5.97;1.90;;;;;;;;;;4908584;29;20043;-93
2021/05/19 01:25:26;;;;;;;3.08;1.75;;;;;;;;;;4920792;29;20039;-92
2021/05/19 01:28:12;;;;;;;3.97;1.60;;;;;;;;;;4921517;29;20032;-91
2021/05/19 01:30:57;;;;;;;3.22;2.22;;;;;;;;;;4915935;29;20027;-91
2021/05/19 01:33:48;;;;;;;4.50;1.88;;;;;;;;;;4921804;29;20099;-92
2021/05/19 01:36:33;;;;;;;5.20;2.25;;;;;;;;;;4920712;29;20027;-90
2021/05/19 01:39:19;;;;;;;3.58;2.00;;;;;;;;;;4924861;29;20087;-91
2021/05/19 01:42:04;;;;;;;9.00;2.28;;;;;;;;;;4920695;29;20394;-91
2021/05/19 01:44:53;;;;;;;2.67;1.85;;;;;;;;;;4911883;29;20123;-91
2021/05/19 01:47:49;;;;;;;4.93;2.20;;;;;;;;;;4923106;29;20027;-90
2021/05/19 01:50:34;;;;;;;5.97;2.40;;;;;;;;;;4925651;29;20255;-91
2021/05/19 01:53:20;;;;;;;5.00;2.17;;;;;;;;;;4914742;29;20033;-91
2021/05/19 01:56:05;;;;;;;3.83;2.25;;;;;;;;;;4922083;29;20027;-91
2021/05/19 01:58:51;;;;;;;10.68;2.63;;;;;;;;;;4924491;29;20107;-89
2021/05/19 02:01:36;;;;;;;6.50;2.10;;;;;;;;;;4926374;29;20022;-90
2021/05/19 02:04:21;;;;;;;3.72;1.92;;;;;;;;;;4942736;29;20075;-90
2021/05/19 02:07:06;;;;;;;5.30;2.30;;;;;;;;;;4935030;29;20035;-91
2021/05/19 02:09:51;;;;;;;5.40;2.20;;;;;;;;;;4936088;29;20036;-92
2021/05/19 02:12:37;;;;;;;7.55;2.30;;;;;;;;;;4942251;29;20024;-90
2021/05/19 02:15:22;;;;;;;2.80;2.22;;;;;;;;;;4957338;28;20019;-90
2021/05/19 02:18:07;;;;;;;5.78;2.75;;;;;;;;;;4956204;28;20055;-90
2021/05/19 02:20:52;;;;;;;6.57;2.38;;;;;;;;;;4958440;29;20026;-90
2021/05/19 02:23:38;;;;;;;4.35;2.40;;;;;;;;;;4963519;28;20011;-90
2021/05/19 02:26:23;;;;;;;7.18;2.00;;;;;;;;;;4960574;29;20087;-91
2021/05/19 02:29:09;;;;;;;4.60;2.15;;;;;;;;;;4952712;29;20125;-91
2021/05/19 02:31:54;;;;;;;3.42;2.33;;;;;;;;;;4950154;29;20130;-91
2021/05/19 02:34:39;;;;;;;7.15;2.30;;;;;;;;;;4949016;29;20023;-89
2021/05/19 02:37:25;;;;;;;4.55;2.53;;;;;;;;;;4948143;29;20042;-91
2021/05/19 02:40:11;;;;;;;3.40;2.60;;;;;;;;;;4943244;28;20092;-91
2021/05/19 02:42:56;;;;;;;3.33;2.25;;;;;;;;;;4944041;29;20023;-91
2021/05/19 02:45:41;;;;;;;4.00;2.25;;;;;;;;;;4941834;28;20031;-92
2021/05/19 02:48:27;;;;;;;3.42;2.50;;;;;;;;;;4926456;29;20028;-90
2021/05/19 02:51:12;;;;;;;4.82;2.47;;;;;;;;;;4943051;29;20027;-90
2021/05/19 02:54:01;;;;;;;2.95;2.35;;;;;;;;;;4941681;28;20102;-93
2021/05/19 02:56:46;;;;;;;3.20;2.45;;;;;;;;;;4935264;29;20031;-91
2021/05/19 02:59:32;;;;;;;4.10;2.10;;;;;;;;;;4956441;28;20050;-91
2021/05/19 03:02:17;;;;;;;3.80;2.08;;;;;;;;;;4941839;29;20016;-90
2021/05/19 03:05:03;;;;;;;5.05;2.40;;;;;;;;;;4941543;28;20478;-92
2021/05/19 03:07:49;;;;;;;4.43;2.70;;;;;;;;;;4939687;29;20031;-91
2021/05/19 03:10:34;;;;;;;3.38;2.58;;;;;;;;;;4923083;29;20096;-92
2021/05/19 03:13:20;;;;;;;5.57;3.00;;;;;;;;;;4942793;29;20114;-92
2021/05/19 03:16:05;;;;;;;3.33;2.60;;;;;;;;;;4935203;28;20043;-90
2021/05/19 03:18:50;;;;;;;3.65;2.28;;;;;;;;;;4916015;29;20035;-93
2021/05/19 03:21:36;;;;;;;9.10;2.70;;;;;;;;;;4934791;29;20027;-91
2021/05/19 03:24:21;;;;;;;8.18;2.83;;;;;;;;;;4927586;28;20111;-91
2021/05/19 03:27:06;;;;;;;6.00;2.90;;;;;;;;;;4940524;29;20510;-89
2021/05/19 03:29:51;;;;;;;5.63;2.58;;;;;;;;;;4937234;28;20050;-89
2021/05/19 03:32:37;;;;;;;6.10;2.75;;;;;;;;;;4928788;28;20086;-87
2021/05/19 03:35:22;;;;;;;5.40;2.90;;;;;;;;;;4937716;29;20119;-89
2021/05/19 03:38:08;;;;;;;9.20;3.20;;;;;;;;;;4925685;28;20066;-92
2021/05/19 03:40:53;;;;;;;6.95;2.95;;;;;;;;;;4926656;28;20035;-90
2021/05/19 03:43:39;;;;;;;8.07;3.05;;;;;;;;;;4944989;29;20039;-89
2021/05/19 03:46:24;;;;;;;3.92;2.22;;;;;;;;;;4939547;28;20098;-90
2021/05/19 03:49:09;;;;;;;3.88;2.10;;;;;;;;;;4936111;29;20031;-91
2021/05/19 03:51:55;;;;;;;5.88;2.45;;;;;;;;;;4925448;28;20026;-91
2021/05/19 03:54:40;;;;;;;4.55;2.20;;;;;;;;;;4956771;28;20018;-90
2021/05/19 03:57:26;;;;;;;3.70;2.22;;;;;;;;;;4938452;29;20082;-89
2021/05/19 04:00:13;;;;;;;5.05;2.80;;;;;;;;;;4936056;28;20051;-90
2021/05/19 04:02:59;;;;;;;6.43;2.70;;;;;;;;;;4938623;28;20180;-89
2021/05/19 04:05:45;;;;;;;4.80;2.45;;;;;;;;;;4939632;29;20027;-91
2021/05/19 04:08:40;;;;;;;2.60;2.20;;;;;;;;;;4939236;29;20035;-90
2021/05/19 04:11:25;;;;;;;3.72;1.98;;;;;;;;;;4939918;29;20023;-90
2021/05/19 04:14:11;;;;;;;6.53;2.85;;;;;;;;;;4938589;29;20043;-92
2021/05/19 04:16:56;;;;;;;4.75;2.70;;;;;;;;;;4941937;28;20071;-89
2021/05/19 04:19:41;;;;;;;3.40;2.60;;;;;;;;;;4939193;28;20023;-85
2021/05/19 04:22:26;;;;;;;3.75;2.45;;;;;;;;;;4933479;28;20023;-86
2021/05/19 04:25:13;;;;;;;6.47;2.55;;;;;;;;;;4938723;29;20144;-86
2021/05/19 04:27:58;;;;;;;3.95;2.72;;;;;;;;;;4916976;28;20196;-84
2021/05/19 04:30:43;;;;;;;7.32;2.67;;;;;;;;;;4940983;28;20541;-85
2021/05/19 04:33:28;;;;;;;4.82;2.65;;;;;;;;;;4937615;28;20019;-85
2021/05/19 04:36:13;;;;;;;2.97;2.50;;;;;;;;;;4936541;28;20030;-86
2021/05/19 04:38:59;;;;;;;5.05;2.65;;;;;;;;;;4940565;28;20175;-87
2021/05/19 04:41:44;;;;;;;3.80;2.17;;;;;;;;;;4937134;29;20054;-81
2021/05/19 04:44:29;;;;;;;5.75;2.55;;;;;;;;;;4936092;28;20478;-85
2021/05/19 04:47:15;;;;;;;5.80;3.13;;;;;;;;;;4936644;28;20041;-81
2021/05/19 04:50:00;;;;;;;5.05;3.10;;;;;;;;;;4930180;29;20102;-83
2021/05/19 04:52:46;;;;;;;6.28;2.70;;;;;;;;;;4936610;28;20023;-82
2021/05/19 04:55:31;;;;;;;7.78;3.17;;;;;;;;;;4917928;28;20034;-82
2021/05/19 04:58:16;;;;;;;10.40;3.40;;;;;;;;;;4936927;29;20050;-84
2021/05/19 05:01:01;;;;;;;3.70;2.20;;;;;;;;;;4932321;29;20548;-83
2021/05/19 05:03:46;;;;;;;4.60;2.30;;;;;;;;;;4935403;29;20050;-77
2021/05/19 05:06:32;;;;;;;7.32;2.67;;;;;;;;;;4933198;28;20031;-77
2021/05/19 05:09:17;;;;;;;4.95;2.80;;;;;;;;;;4932170;28;20027;-76
2021/05/19 05:12:02;;;;;;;4.50;2.63;;;;;;;;;;4938035;28;20038;-76
2021/05/19 05:14:47;;;;;;;5.90;2.60;;;;;;;;;;4935225;28;20067;-78
2021/05/19 05:17:33;;;;;;;16.45;5.38;;;;;;;;;;4937577;28;20031;-77
2021/05/19 05:20:19;;;;;;;19.25;12.93;;;;;;;;;;4933432;28;20034;-76
2021/05/19 05:23:05;;;;;;;7.90;3.50;;;;;;;;;;4937418;29;20426;-78
2021/05/19 05:25:50;;;;;;;4.60;2.80;;;;;;;;;;4940992;29;20027;-90
2021/05/19 05:28:35;;;;;;;6.90;2.80;;;;;;;;;;4941417;28;20329;-86
2021/05/19 05:31:20;;;;;;;7.20;3.20;;;;;;;;;;4934549;28;20031;-87
2021/05/19 05:34:06;;;;;;;5.95;3.00;;;;;;;;;;4934792;29;20538;-86
2021/05/19 05:36:51;;;;;;;4.10;3.10;;;;;;;;;;4934977;28;20476;-87
2021/05/19 05:39:36;;;;;;;7.05;3.13;;;;;;;;;;4940142;28;20027;-91
2021/05/19 05:42:21;;;;;;;6.38;4.10;;;;;;;;;;4940140;29;20042;-92
2021/05/19 05:45:20;;;;;;;5.15;3.75;;;;;;;;;;4943674;29;20039;-90
2021/05/19 05:48:05;;;;;;;4.40;3.22;;;;;;;;;;4931194;29;20039;-90
2021/05/19 05:50:51;;;;;;;20.13;11.73;;;;;;;;;;4946127;28;20095;-90
2021/05/19 05:53:36;;;;;;;19.38;8.30;;;;;;;;;;4941743;29;20490;-91
2021/05/19 06:25:44;;;;;;;10.13;5.28;;;;;;;;;;2329755;23;22096;-88
2021/05/19 06:28:29;;;;;;;5.97;4.07;;;;;;;;;;4944026;29;20591;-91
2021/05/19 06:49:52;;;;;;;3.17;2.13;;;;;;;;;;4956988;28;20074;-91
2021/05/19 06:52:37;;;;;;;8.20;2.45;;;;;;;;;;4933253;28;20354;-86
2021/05/19 06:55:23;;;;;;;7.97;2.70;;;;;;;;;;4946053;28;20026;-94
2021/05/19 06:58:08;;;;;;;4.18;2.33;;;;;;;;;;4934263;28;20110;-84
2021/05/19 07:00:53;;;;;;;7.22;2.40;;;;;;;;;;4923557;28;20446;-86
2021/05/19 07:03:39;;;;;;;5.88;2.13;;;;;;;;;;4935800;29;20090;-87
2021/05/19 07:06:25;;;;;;;3.40;2.10;;;;;;;;;;4937661;28;20716;-88
2021/05/19 07:09:10;;;;;;;3.15;2.20;;;;;;;;;;4922580;28;20534;-85
2021/05/19 07:11:55;;;;;;;4.38;1.70;;;;;;;;;;4936966;28;20023;-90
2021/05/19 07:14:50;;;;;;;6.93;2.63;;;;;;;;;;4925975;29;20054;-90
2021/05/19 07:17:35;;;;;;;5.93;1.90;;;;;;;;;;4947631;28;20055;-91
2021/05/19 07:20:21;;;;;;;3.53;2.00;;;;;;;;;;4937699;29;20118;-87
2021/05/19 07:23:06;;;;;;;3.30;2.10;;;;;;;;;;4939880;29;20034;-87
2021/05/19 07:25:51;;;;;;;2.45;1.73;;;;;;;;;;4939641;28;20023;-88
2021/05/19 07:28:42;;;;;;;3.15;2.13;;;;;;;;;;4939908;28;20031;-90
2021/05/19 07:31:31;;;;;;;16.60;12.40;;;;;;;;;;4952278;28;20035;-93
2021/05/19 07:34:19;;;;;;;4.30;2.30;;;;;;;;;;4933445;29;20035;-88
2021/05/19 07:37:05;;;;;;;3.22;2.03;;;;;;;;;;4938616;28;20378;-88
2021/05/19 07:39:53;;;;;;;4.80;2.22;;;;;;;;;;4937491;29;20190;-88
2021/05/19 07:42:38;;;;;;;4.50;2.15;;;;;;;;;;4925689;28;20023;-86
2021/05/19 07:45:26;;;;;;;4.05;2.05;;;;;;;;;;4947495;29;20510;-94
2021/05/19 07:48:12;;;;;;;4.13;1.92;;;;;;;;;;4946407;28;20043;-88
2021/05/19 07:51:08;;;;;;;4.22;1.80;;;;;;;;;;4966353;28;20110;-91
2021/05/19 07:53:56;;;;;;;4.63;2.08;;;;;;;;;;4969098;28;20019;-92
2021/05/19 07:56:56;;;;;;;3.13;2.22;;;;;;;;;;4936032;28;20038;-87
2021/05/19 07:59:43;;;;;;;6.80;2.40;;;;;;;;;;4951181;28;20050;-86
2021/05/19 08:02:32;;;;;;;6.22;2.90;;;;;;;;;;4957625;28;20026;-85
2021/05/19 08:05:17;;;;;;;4.05;2.20;;;;;;;;;;4953279;28;20030;-86
2021/05/19 08:08:02;;;;;;;4.00;2.60;;;;;;;;;;4973930;28;20022;-84
2021/05/19 08:10:48;;;;;;;4.90;2.35;;;;;;;;;;4965556;28;20493;-83
2021/05/19 08:13:39;;;;;;;6.57;3.90;;;;;;;;;;4956191;28;20057;-83
2021/05/19 08:16:24;;;;;;;6.93;3.10;;;;;;;;;;4958025;28;20053;-85
2021/05/19 08:19:10;;;;;;;3.63;2.35;;;;;;;;;;4965602;28;20138;-87
2021/05/19 08:21:55;;;;;;;5.55;2.30;;;;;;;;;;4961590;28;20043;-85
2021/05/19 08:24:42;;;;;;;3.85;2.03;;;;;;;;;;4966808;28;20057;-82
2021/05/19 08:27:27;;;;;;;2.92;2.10;;;;;;;;;;4946199;28;20040;-84
2021/05/19 08:30:14;;;;;;;3.97;2.05;;;;;;;;;;4958882;28;20544;-88
2021/05/19 08:33:00;;;;;;;3.40;1.85;;;;;;;;;;4944414;28;20026;-88
2021/05/19 08:35:45;;;;;;;2.85;1.80;;;;;;;;;;4962473;28;20027;-86
2021/05/19 08:38:37;;;;;;;14.07;2.97;;;;;;;;;;4964620;28;20018;-93
2021/05/19 08:41:26;;;;;;;3.28;1.80;;;;;;;;;;4964468;28;20061;-89
2021/05/19 08:44:12;;;;;;;3.20;2.05;;;;;;;;;;4968593;28;20046;-89
2021/05/19 08:46:58;;;;;;;3.15;2.22;;;;;;;;;;4960357;28;20014;-84
2021/05/19 08:49:45;;;;;;;5.18;1.88;;;;;;;;;;4956701;28;20046;-88
2021/05/19 08:52:30;;;;;;;6.45;1.95;;;;;;;;;;4945156;28;20023;-87
2021/05/19 08:55:18;;;;;;;2.20;1.85;;;;;;;;;;4953981;28;20022;-90
2021/05/19 08:58:03;;;;;;;4.13;2.20;;;;;;;;;;4955000;28;20450;-88
2021/05/19 09:00:48;;;;;;;2.80;1.98;;;;;;;;;;4958640;28;20027;-89
2021/05/19 09:03:35;;;;;;;3.53;1.98;;;;;;;;;;4957535;28;20113;-87
2021/05/19 09:06:20;;;;;;;4.22;1.80;;;;;;;;;;4963115;28;20102;-90
2021/05/19 09:09:21;;;;;;;4.68;1.83;;;;;;;;;;4957594;28;20486;-88
2021/05/19 09:12:11;;;;;;;6.78;1.70;;;;;;;;;;4961277;28;20109;-89
2021/05/19 09:15:04;;;;;;;4.50;2.00;;;;;;;;;;4957651;28;20117;-88
2021/05/19 09:17:56;;;;;;;4.28;1.67;;;;;;;;;;4957747;28;20031;-88
2021/05/19 09:20:43;;;;;;;5.03;1.95;;;;;;;;;;4973498;28;20033;-93
2021/05/19 09:23:28;;;;;;;3.28;1.98;;;;;;;;;;4961548;28;20089;-93
2021/05/19 09:26:14;;;;;;;2.50;1.50;;;;;;;;;;4948112;28;20319;-91
2021/05/19 09:29:20;;;;;;;3.40;1.35;;;;;;;;;;4945711;28;20045;-90
2021/05/19 09:32:10;;;;;;;3.03;1.40;;;;;;;;;;4965500;28;20023;-91
2021/05/19 09:35:00;;;;;;;1.42;1.33;;;;;;;;;;4959836;28;20023;-88
2021/05/19 09:37:45;;;;;;;4.70;2.53;;;;;;;;;;4957959;28;20505;-91
2021/05/19 09:40:33;;;;;;;2.33;1.20;;;;;;;;;;4963897;28;20113;-90
2021/05/19 09:43:33;;;;;;;3.58;1.58;;;;;;;;;;4941051;28;20060;-90
2021/05/19 09:49:22;;;;;;;3.35;1.90;;;;;;;;;;4955357;28;20047;-90
2021/05/19 09:52:09;;;;;;;2.95;1.50;;;;;;;;;;4959054;28;20036;-85
2021/05/19 09:55:00;;;;;;;2.45;1.10;;;;;;;;;;4955494;28;20093;-82
2021/05/19 09:57:48;;;;;;;3.03;1.50;;;;;;;;;;4957134;28;20019;-82
2021/05/19 10:00:34;;;;;;;2.78;1.45;;;;;;;;;;4950642;28;20026;-82
2021/05/19 10:03:19;;;;;;;2.70;1.25;;;;;;;;;;4949724;28;20034;-88
2021/05/19 10:06:13;;;;;;;2.40;1.30;;;;;;;;;;4959318;28;20027;-87
2021/05/19 10:08:58;;;;;;;3.47;1.27;;;;;;;;;;4949447;28;20393;-81
2021/05/19 10:11:44;;;;;;;1.95;1.17;;;;;;;;;;4953957;28;20540;-81
2021/05/19 10:14:29;;;;;;;1.85;0.90;;;;;;;;;;4954806;28;20109;-81
2021/05/19 10:17:15;;;;;;;4.00;1.20;;;;;;;;;;4954600;28;20102;-81
2021/05/19 10:20:02;;;;;;;7.40;3.40;;;;;;;;;;4956669;28;20389;-81
2021/05/19 10:22:49;;;;;;;2.30;1.48;;;;;;;;;;4943431;28;20039;-80
2021/05/19 10:25:39;;;;;;;0.98;0.82;;;;;;;;;;4954163;28;20097;-84
2021/05/19 10:28:36;;;;;;;4.97;1.10;;;;;;;;;;4954895;28;20033;-80
2021/05/19 10:31:26;;;;;;;3.67;2.13;;;;;;;;;;4952478;28;20050;-80
2021/05/19 10:34:11;;;;;;;;;;;;;;;;;;4955753;28;20393;-78
2021/05/19 10:36:56;;;;;;;1.08;0.82;;;;;;;;;;4956128;28;20203;-78
2021/05/19 10:39:41;;;;;;;1.95;1.20;;;;;;;;;;4956252;28;20090;-79
2021/05/19 10:42:35;;;;;;;1.33;0.98;;;;;;;;;;4956234;28;20031;-80
2021/05/19 10:45:21;;;;;;;4.85;1.00;;;;;;;;;;4956463;28;20023;-80
2021/05/19 10:48:26;;;;;;;1.73;1.10;;;;;;;;;;4954064;28;20042;-80
2021/05/19 10:51:30;;;;;;;2.22;1.00;;;;;;;;;;4957088;28;20022;-80
2021/05/19 10:57:32;;;;;;;2.72;1.30;;;;;;;;;;4961770;28;20038;-78
2021/05/19 11:00:23;;;;;;;3.20;1.02;;;;;;;;;;4955061;28;20022;-78
2021/05/19 11:03:09;;;;;;;4.20;1.42;;;;;;;;;;4951453;28;20049;-78
2021/05/19 11:05:55;;;;;;;3.53;1.70;;;;;;;;;;4945638;28;20053;-79
2021/05/19 11:08:40;;;;;;;2.25;1.00;;;;;;;;;;4953495;28;20035;-79
2021/05/19 11:11:31;;;;;;;3.70;1.25;;;;;;;;;;4956124;28;20479;-82
2021/05/19 11:14:34;;;;;;;3.92;1.30;;;;;;;;;;4953880;28;20026;-81
2021/05/19 11:17:31;;;;;;;4.03;2.25;;;;;;;;;;4962049;28;20030;-81
2021/05/19 11:20:16;;;;;;;3.83;1.30;;;;;;;;;;4953174;28;20031;-79
2021/05/19 11:23:08;;;;;;;1.75;1.15;;;;;;;;;;4955934;28;20037;-84
2021/05/19 11:26:13;;;;;;;5.13;1.08;;;;;;;;;;4960434;28;20105;-79
2021/05/19 11:28:58;;;;;;;11.98;7.22;;;;;;;;;;4952276;28;20022;-79
2021/05/19 11:31:45;;;;;;;5.57;1.60;;;;;;;;;;4959746;28;20473;-78
2021/05/19 11:34:30;;;;;;;5.85;1.63;;;;;;;;;;4953141;28;20084;-86
2021/05/19 11:37:16;;;;;;;2.92;1.20;;;;;;;;;;4943473;28;20029;-79
2021/05/19 11:40:03;;;;;;;3.65;1.55;;;;;;;;;;4951637;28;20031;-78
2021/05/19 11:42:55;;;;;;;3.00;1.23;;;;;;;;;;4964202;28;20113;-78
2021/05/19 11:45:41;;;;;;;2.97;1.05;;;;;;;;;;4962705;28;20023;-78
2021/05/19 11:48:28;;;;;;;4.05;1.30;;;;;;;;;;4959674;28;20490;-79
2021/05/19 11:51:17;;;;;;;3.63;1.08;;;;;;;;;;4956362;28;20034;-78
2021/05/19 11:54:03;;;;;;;3.80;1.17;;;;;;;;;;4954660;28;20027;-78
2021/05/19 11:56:49;;;;;;;3.28;1.13;;;;;;;;;;4956114;28;20050;-78
2021/05/19 11:59:37;;;;;;;5.78;1.45;;;;;;;;;;4949799;28;20581;-78
2021/05/19 12:02:22;;;;;;;3.95;1.05;;;;;;;;;;4957503;28;20097;-78
2021/05/19 12:05:08;;;;;;;2.47;1.20;;;;;;;;;;4955104;28;20035;-85
2021/05/19 12:07:53;;;;;;;3.65;1.63;;;;;;;;;;4960055;28;20386;-90
2021/05/19 12:10:39;;;;;;;3.90;1.33;;;;;;;;;;4965499;28;20090;-89
2021/05/19 12:13:25;;;;;;;5.82;1.80;;;;;;;;;;4962115;28;20023;-79
2021/05/19 12:16:17;;;;;;;3.00;1.40;;;;;;;;;;4949957;28;20102;-82
2021/05/19 12:19:08;;;;;;;4.40;1.70;;;;;;;;;;4955976;28;20034;-80
2021/05/19 12:22:10;;;;;;;3.10;1.30;;;;;;;;;;4946371;28;20027;-80
2021/05/19 12:24:55;;;;;;;3.30;1.80;;;;;;;;;;4964245;28;20084;-83
2021/05/19 12:27:41;;;;;;;2.53;1.42;;;;;;;;;;4962657;28;20031;-80
2021/05/19 12:30:26;;;;;;;2.10;0.90;;;;;;;;;;4956841;28;20377;-81
2021/05/19 12:33:13;;;;;;;2.92;1.13;;;;;;;;;;4953293;28;20065;-79
2021/05/19 12:35:58;;;;;;;2.97;1.30;;;;;;;;;;4957281;28;20041;-80
2021/05/19 12:38:47;;;;;;;2.42;1.00;;;;;;;;;;4955549;28;20070;-79
2021/05/19 12:41:44;;;;;;;4.38;1.23;;;;;;;;;;4952073;28;20113;-81
2021/05/19 12:44:31;;;;;;;4.63;1.35;;;;;;;;;;4962473;28;20039;-81
2021/05/19 12:47:23;;;;;;;1.52;1.13;;;;;;;;;;4953249;28;20050;-83
2021/05/19 12:50:09;;;;;;;3.28;1.20;;;;;;;;;;4952742;28;20452;-80
2021/05/19 12:52:54;;;;;;;3.83;1.20;;;;;;;;;;4966337;28;20022;-83
2021/05/19 12:55:39;;;;;;;3.47;1.30;;;;;;;;;;4959989;28;20034;-80
2021/05/19 12:58:25;;;;;;;4.53;1.55;;;;;;;;;;4957783;28;20026;-81
2021/05/19 13:01:10;;;;;;;4.78;1.08;;;;;;;;;;4960452;28;20035;-82
2021/05/19 13:03:58;;;;;;;3.03;1.23;;;;;;;;;;4962507;28;20030;-83
2021/05/19 13:06:50;;;;;;;1.88;0.90;;;;;;;;;;4974402;28;20037;-82
2021/05/19 13:09:35;;;;;;;4.38;1.10;;;;;;;;;;4971199;28;20034;-85
2021/05/19 13:12:27;;;;;;;2.70;1.13;;;;;;;;;;4967145;28;20030;-83
2021/05/19 13:15:15;;;;;;;4.55;1.20;;;;;;;;;;4970263;28;20014;-83
2021/05/19 13:18:05;;;;;;;3.40;1.00;;;;;;;;;;4982515;28;20022;-92
2021/05/19 13:21:03;;;;;;;4.63;1.20;;;;;;;;;;4972206;28;20034;-80
2021/05/19 13:23:51;;;;;;;2.78;1.15;;;;;;;;;;4955174;28;20043;-80
2021/05/19 13:26:37;;;;;;;3.25;1.13;;;;;;;;;;4944584;28;20069;-80
2021/05/19 13:29:23;;;;;;;7.25;1.65;;;;;;;;;;4953911;28;20067;-80
2021/05/19 13:38:24;;;;;;;4.03;1.67;;;;;;;;;;4959416;28;20034;-84
2021/05/19 13:41:10;;;;;;;9.15;4.45;;;;;;;;;;4960056;28;20490;-87
2021/05/19 13:43:55;;;;;;;2.70;1.38;;;;;;;;;;4956454;28;20130;-86
2021/05/19 13:46:41;;;;;;;2.50;1.05;;;;;;;;;;4944875;28;20174;-84
2021/05/19 13:49:28;;;;;;;9.15;1.55;;;;;;;;;;4958521;28;20497;-86
2021/05/19 13:52:14;;;;;;;5.40;1.63;;;;;;;;;;4948170;28;20038;-85
2021/05/19 13:55:02;;;;;;;3.80;1.02;;;;;;;;;;4963238;28;20033;-85
2021/05/19 13:57:48;;;;;;;2.28;1.27;;;;;;;;;;4955828;28;20026;-85
2021/05/19 14:00:35;;;;;;;5.20;1.10;;;;;;;;;;4961470;28;20027;-87
2021/05/19 14:03:26;;;;;;;2.15;0.90;;;;;;;;;;4964564;28;20037;-86
2021/05/19 14:06:12;;;;;;;3.55;1.27;;;;;;;;;;4998777;28;20490;-86
2021/05/19 14:08:58;;;;;;;3.60;1.15;;;;;;;;;;4978238;28;20036;-85
2021/05/19 14:11:58;;;;;;;7.00;1.20;;;;;;;;;;4970687;28;20018;-87
2021/05/19 14:15:10;;;;;;;4.18;1.20;;;;;;;;;;4981807;28;20014;-86
2021/05/19 14:18:16;;;;;;;2.97;1.25;;;;;;;;;;4984970;28;20066;-88
2021/05/19 14:27:20;;;;;;;7.03;3.50;;;;;;;;;;4990086;28;20451;-85
2021/05/19 14:30:07;;;;;;;5.78;1.40;;;;;;;;;;4972916;28;20034;-86
2021/05/19 14:32:52;;;;;;;4.10;1.75;;;;;;;;;;4957586;28;20030;-85
2021/05/19 14:45:16;;;;;;;2.60;0.90;;;;;;;;;;4968230;28;20061;-89
2021/05/19 14:59:47;;;;;;;1.27;0.80;;;;;;;;;;4968902;28;20030;-86
2021/05/19 15:02:32;;;;;;;1.73;0.75;;;;;;;;;;4958483;28;20437;-85
2021/05/19 15:05:17;;;;;;;3.88;1.10;;;;;;;;;;4944723;28;20062;-85
2021/05/19 15:08:03;;;;;;;3.63;0.85;;;;;;;;;;4960821;28;20057;-86
2021/05/19 15:10:48;;;;;;;1.55;0.70;;;;;;;;;;4958742;28;20019;-86
2021/05/19 15:13:33;;;;;;;3.35;1.30;;;;;;;;;;4955003;28;20030;-85
2021/05/19 15:16:19;;;;;;;2.28;1.15;;;;;;;;;;4959375;28;20034;-86
2021/05/19 15:19:04;;;;;;;1.23;0.90;;;;;;;;;;4958154;28;20022;-85
2021/05/19 15:21:50;;;;;;;0.70;0.70;;;;;;;;;;4959102;28;20037;-84
2021/05/19 15:24:35;;;;;;;2.15;1.08;;;;;;;;;;4957738;28;20031;-85
2021/05/19 15:27:20;;;;;;;1.55;0.80;;;;;;;;;;4944642;28;20318;-85
2021/05/19 15:30:06;;;;;;;2.00;0.80;;;;;;;;;;4955831;28;20102;-86
2021/05/19 15:32:51;;;;;;;1.25;0.80;;;;;;;;;;4955527;28;20081;-85
2021/05/19 15:35:36;;;;;;;1.40;0.80;;;;;;;;;;4956899;28;20038;-84
2021/05/19 15:38:21;;;;;;;4.80;3.50;;;;;;;;;;4953442;28;20026;-84
2021/05/19 15:41:07;;;;;;;38.30;34.25;;;;;;;;;;4954990;28;20054;-84
2021/05/19 15:43:54;;;;;;;13.85;9.35;;;;;;;;;;4956308;28;20026;-85
2021/05/19 15:46:39;;;;;;;7.82;6.55;;;;;;;;;;4948993;28;20038;-86
2021/05/19 15:49:24;;;;;;;9.13;5.60;;;;;;;;;;4954093;28;20521;-84
2021/05/19 15:52:09;;;;;;;7.75;3.55;;;;;;;;;;4959578;28;20036;-84
2021/05/19 15:54:55;;;;;;;2.92;1.20;;;;;;;;;;4954083;28;20104;-84
2021/05/19 15:57:40;;;;;;;0.80;0.73;;;;;;;;;;4958475;28;20466;-84
2021/05/19 16:00:26;;;;;;;1.67;1.13;;;;;;;;;;4957395;28;20038;-90
2021/05/19 16:03:11;;;;;;;2.17;1.20;;;;;;;;;;4953492;28;20121;-84
2021/05/19 16:05:56;;;;;;;5.28;2.67;;;;;;;;;;4963576;28;20034;-85
2021/05/19 16:08:42;;;;;;;7.03;4.30;;;;;;;;;;4959581;28;20043;-85
2021/05/19 16:11:27;;;;;;;3.55;1.48;;;;;;;;;;4954823;28;20030;-85
2021/05/19 16:14:12;;;;;;;4.75;3.58;;;;;;;;;;4954151;28;20093;-85
2021/05/19 16:16:57;;;;;;;2.80;1.20;;;;;;;;;;4956636;28;20141;-85
2021/05/19 16:19:42;;;;;;;2.28;1.45;;;;;;;;;;4950549;28;20468;-85
2021/05/19 16:22:28;;;;;;;2.92;1.52;;;;;;;;;;4955216;28;20418;-87
2021/05/19 16:25:16;;;;;;;1.85;1.20;;;;;;;;;;4955395;28;20078;-85
2021/05/19 16:28:01;;;;;;;5.93;3.40;;;;;;;;;;4967482;28;20030;-87
2021/05/19 16:31:06;;;;;;;1.63;0.95;;;;;;;;;;4952157;28;20023;-84
2021/05/19 16:37:00;;;;;;;1.20;0.70;;;;;;;;;;4955105;28;20031;-86
2021/05/19 16:39:46;;;;;;;1.23;0.80;;;;;;;;;;4956530;28;20037;-86
2021/05/19 16:42:31;;;;;;;2.67;0.88;;;;;;;;;;4957574;28;20485;-86
2021/05/19 16:45:16;;;;;;;3.38;1.80;;;;;;;;;;4937805;28;20049;-86
2021/05/19 16:48:02;;;;;;;2.47;1.10;;;;;;;;;;4958694;28;20763;-87
2021/05/19 16:50:48;;;;;;;2.00;0.73;;;;;;;;;;4944228;28;20054;-86
2021/05/19 16:53:35;;;;;;;0.80;0.70;;;;;;;;;;4959473;28;20027;-84
2021/05/19 16:56:20;;;;;;;11.57;8.20;;;;;;;;;;4940957;28;20027;-87
2021/05/19 16:59:08;;;;;;;6.18;3.65;;;;;;;;;;4960057;28;20437;-87
2021/05/19 17:04:54;;;;;;;2.03;1.13;;;;;;;;;;4964935;28;20034;-87
2021/05/19 17:07:40;;;;;;;2.08;0.70;;;;;;;;;;4955630;28;20030;-87
2021/05/19 17:10:27;;;;;;;1.70;0.90;;;;;;;;;;4969052;28;20033;-87
2021/05/19 17:13:12;;;;;;;1.80;0.93;;;;;;;;;;4966634;28;20501;-88
2021/05/19 17:15:58;;;;;;;2.58;0.90;;;;;;;;;;4949443;28;20053;-85
2021/05/19 17:18:43;;;;;;;1.17;0.75;;;;;;;;;;4957183;28;20470;-86
2021/05/19 17:21:29;;;;;;;1.95;1.27;;;;;;;;;;4949513;28;20069;-82
2021/05/19 17:24:15;;;;;;;1.08;0.90;;;;;;;;;;4964517;28;20034;-85
2021/05/19 17:27:00;;;;;;;2.15;1.30;;;;;;;;;;4965745;28;20105;-83
2021/05/19 17:29:45;;;;;;;1.00;0.80;;;;;;;;;;4950536;28;20018;-86
2021/05/19 17:32:31;;;;;;;2.90;0.82;;;;;;;;;;4949050;28;20085;-85
2021/05/19 17:35:18;;;;;;;1.67;0.82;;;;;;;;;;4959293;28;20105;-86
2021/05/19 17:38:04;;;;;;;1.77;0.88;;;;;;;;;;4955322;28;20021;-84
2021/05/19 17:40:49;;;;;;;1.95;0.73;;;;;;;;;;4963159;28;20381;-86
2021/05/19 17:43:14;;;;;;;2.10;0.90;;;;;;;;;;4966674;28;20022;-86
2021/05/19 17:45:59;;;;;;;3.75;0.90;;;;;;;;;;4962510;28;20074;-88
2021/05/19 17:48:46;;;;;;;4.47;0.90;;;;;;;;;;4953900;28;20051;-88
2021/05/19 17:51:31;;;;;;;3.85;0.95;;;;;;;;;;4962381;28;20030;-86
2021/05/19 17:54:17;;;;;;;1.42;1.02;;;;;;;;;;4968077;28;20430;-89
2021/05/19 17:57:02;;;;;;;3.22;0.98;;;;;;;;;;4965396;28;20447;-87
2021/05/19 17:59:47;;;;;;;3.08;1.00;;;;;;;;;;4959547;28;20474;-88
2021/05/19 18:02:32;;;;;;;2.08;0.90;;;;;;;;;;4946985;28;20038;-88
2021/05/19 18:05:18;;;;;;;2.72;0.85;;;;;;;;;;4962366;28;20034;-88
2021/05/19 18:08:04;;;;;;;3.13;0.93;;;;;;;;;;4956532;28;20042;-89
2021/05/19 18:10:51;;;;;;;2.25;1.52;;;;;;;;;;4963126;28;20018;-87
2021/05/19 18:13:36;;;;;;;2.83;1.48;;;;;;;;;;4955259;28;20026;-86
2021/05/19 18:16:21;;;;;;;3.55;1.30;;;;;;;;;;4945934;28;20034;-88
2021/05/19 18:19:16;;;;;;;2.65;0.98;;;;;;;;;;4955996;28;20520;-86